createdAt,value
2017-10-22T00:01:45.585Z,11.90
2017-10-22T00:04:13.153Z,11.80
2017-10-22T00:06:40.727Z,11.80
2017-10-22T00:09:08.261Z,11.90
2017-10-22T00:11:36.204Z,11.80
2017-10-22T00:14:03.759Z,11.80
2017-10-22T00:16:31.271Z,11.80
2017-10-22T00:18:58.828Z,11.70
2017-10-22T00:21:26.403Z,11.70
2017-10-22T00:23:53.952Z,11.70
2017-10-22T00:26:21.486Z,11.70
2017-10-22T00:28:49.061Z,11.70
2017-10-22T00:31:16.611Z,11.70
2017-10-22T00:33:44.549Z,11.70
2017-10-22T00:36:12.102Z,11.70
2017-10-22T00:38:39.673Z,11.70
2017-10-22T00:41:07.233Z,11.70
2017-10-22T00:43:34.849Z,11.70
2017-10-22T00:46:02.393Z,11.70
2017-10-22T00:48:29.946Z,11.70
2017-10-22T00:50:57.508Z,11.80
2017-10-22T00:53:25.432Z,11.80
2017-10-22T00:55:52.993Z,11.80
2017-10-22T00:58:20.569Z,11.80
2017-10-22T01:00:48.101Z,11.80
2017-10-22T01:03:15.670Z,11.80
2017-10-22T01:05:43.606Z,11.70
2017-10-22T01:08:11.224Z,11.70
2017-10-22T01:10:38.798Z,11.70
2017-10-22T01:13:06.741Z,11.60
2017-10-22T01:15:34.289Z,11.60
2017-10-22T01:18:01.852Z,11.60
2017-10-22T01:20:29.393Z,11.50
2017-10-22T01:22:56.964Z,11.50
2017-10-22T01:25:24.509Z,11.40
2017-10-22T01:27:52.084Z,11.40
2017-10-22T01:30:19.628Z,11.40
2017-10-22T01:32:47.175Z,11.40
2017-10-22T01:35:14.725Z,11.30
2017-10-22T01:37:42.334Z,11.30
2017-10-22T01:40:09.893Z,11.30
2017-10-22T01:42:37.416Z,11.20
2017-10-22T01:45:04.958Z,11.20
2017-10-22T01:47:32.488Z,11.20
2017-10-22T01:50:00.455Z,11.10
2017-10-22T01:52:28.398Z,11.10
2017-10-22T01:54:55.933Z,11.20
2017-10-22T01:57:23.493Z,11.10
2017-10-22T01:59:51.033Z,11.00
2017-10-22T02:02:18.666Z,11.00
2017-10-22T02:04:46.250Z,11.00
2017-10-22T02:07:13.824Z,11.00
2017-10-22T02:09:41.351Z,10.90
2017-10-22T02:12:08.897Z,10.90
2017-10-22T02:14:36.884Z,10.90
2017-10-22T02:17:04.820Z,10.90
2017-10-22T02:19:32.374Z,10.90
2017-10-22T02:21:59.917Z,10.80
2017-10-22T02:24:27.896Z,10.70
2017-10-22T02:26:55.516Z,10.80
2017-10-22T02:29:23.033Z,10.70
2017-10-22T02:31:50.601Z,10.70
2017-10-22T02:34:18.551Z,10.70
2017-10-22T02:36:46.154Z,10.70
2017-10-22T02:39:13.692Z,10.60
2017-10-22T02:41:41.281Z,10.60
2017-10-22T02:44:08.841Z,10.60
2017-10-22T02:46:36.406Z,10.60
2017-10-22T02:49:03.961Z,10.50
2017-10-22T02:51:31.487Z,10.50
2017-10-22T02:53:59.476Z,10.40
2017-10-22T02:56:27.420Z,10.30
2017-10-22T02:58:54.991Z,10.40
2017-10-22T03:01:22.544Z,10.30
2017-10-22T03:03:50.101Z,10.30
2017-10-22T03:06:17.664Z,10.30
2017-10-22T03:08:45.228Z,10.30
2017-10-22T03:11:12.861Z,10.20
2017-10-22T03:13:40.436Z,10.20
2017-10-22T03:16:07.993Z,10.20
2017-10-22T03:18:35.620Z,10.20
2017-10-22T03:21:03.577Z,10.20
2017-10-22T03:23:31.167Z,10.20
2017-10-22T03:25:59.101Z,10.20
2017-10-22T03:28:26.650Z,10.30
2017-10-22T03:30:54.178Z,10.30
2017-10-22T03:33:21.740Z,10.40
2017-10-22T03:35:49.302Z,10.40
2017-10-22T03:38:16.829Z,10.40
2017-10-22T03:40:44.376Z,10.50
2017-10-22T03:43:12.313Z,10.60
2017-10-22T03:45:39.909Z,10.60
2017-10-22T03:48:07.466Z,10.60
2017-10-22T03:50:35.003Z,10.60
2017-10-22T03:53:02.570Z,10.60
2017-10-22T03:55:30.108Z,10.70
2017-10-22T03:57:58.125Z,10.70
2017-10-22T04:00:25.670Z,10.70
2017-10-22T04:02:59.431Z,10.70
2017-10-22T04:05:26.979Z,10.70
2017-10-22T04:07:54.516Z,10.70
2017-10-22T04:10:22.502Z,10.70
2017-10-22T04:12:50.029Z,10.70
2017-10-22T04:15:17.586Z,10.70
2017-10-22T04:17:45.124Z,10.70
2017-10-22T04:20:13.082Z,10.40
2017-10-22T04:22:40.612Z,10.40
2017-10-22T04:25:08.147Z,10.20
2017-10-22T04:27:36.102Z,10.00
2017-10-22T04:30:03.644Z,10.10
2017-10-22T04:32:31.191Z,10.00
2017-10-22T04:34:58.724Z,9.90
2017-10-22T04:37:26.690Z,9.60
2017-10-22T04:39:54.236Z,9.60
2017-10-22T04:42:21.780Z,9.40
2017-10-22T04:44:49.409Z,9.30
2017-10-22T04:47:16.938Z,9.20
2017-10-22T04:49:44.481Z,9.00
2017-10-22T04:52:12.397Z,8.90
2017-10-22T04:54:39.945Z,9.00
2017-10-22T04:57:07.473Z,8.90
2017-10-22T04:59:35.030Z,8.80
2017-10-22T05:02:02.565Z,8.80
2017-10-22T05:04:30.100Z,8.70
2017-10-22T05:06:57.664Z,8.70
2017-10-22T05:09:25.214Z,8.70
2017-10-22T05:11:52.751Z,8.60
2017-10-22T05:14:20.273Z,8.60
2017-10-22T05:16:47.819Z,8.60
2017-10-22T05:19:15.361Z,8.60
2017-10-22T05:21:42.937Z,8.60
2017-10-22T05:24:10.467Z,8.60
2017-10-22T05:26:38.007Z,8.60
2017-10-22T05:29:05.559Z,8.70
2017-10-22T05:31:33.090Z,8.70
2017-10-22T05:34:00.643Z,8.60
2017-10-22T05:36:28.172Z,8.60
2017-10-22T05:38:55.717Z,8.60
2017-10-22T05:41:23.673Z,8.60
2017-10-22T05:43:51.235Z,8.60
2017-10-22T05:46:18.790Z,8.60
2017-10-22T05:48:46.342Z,8.60
2017-10-22T05:51:13.887Z,8.60
2017-10-22T05:53:41.813Z,8.60
2017-10-22T05:56:09.356Z,8.70
2017-10-22T05:58:36.881Z,8.60
2017-10-22T06:01:04.430Z,8.70
2017-10-22T06:03:31.957Z,8.70
2017-10-22T06:05:59.876Z,8.60
2017-10-22T06:08:27.443Z,8.70
2017-10-22T06:10:54.960Z,8.60
2017-10-22T06:13:22.504Z,8.60
2017-10-22T06:15:50.023Z,8.60
2017-10-22T06:18:17.611Z,8.70
2017-10-22T06:20:45.137Z,8.70
2017-10-22T06:23:12.668Z,8.70
2017-10-22T06:25:40.212Z,8.60
2017-10-22T06:28:07.741Z,8.60
2017-10-22T06:30:35.302Z,8.60
2017-10-22T06:33:02.851Z,8.60
2017-10-22T06:35:30.393Z,8.60
2017-10-22T06:37:58.315Z,8.70
2017-10-22T06:40:25.876Z,8.70
2017-10-22T06:42:53.408Z,8.70
2017-10-22T06:45:21.339Z,8.70
2017-10-22T06:47:48.890Z,8.70
2017-10-22T06:50:16.422Z,8.70
2017-10-22T06:52:43.966Z,8.70
2017-10-22T06:55:11.503Z,8.60
2017-10-22T06:57:39.059Z,8.60
2017-10-22T07:00:06.618Z,8.70
2017-10-22T07:02:34.193Z,8.70
2017-10-22T07:05:01.737Z,8.70
2017-10-22T07:07:29.677Z,8.70
2017-10-22T07:09:57.234Z,8.70
2017-10-22T07:12:24.764Z,8.70
2017-10-22T07:14:52.316Z,8.70
2017-10-22T07:17:19.841Z,8.70
2017-10-22T07:19:47.428Z,8.70
2017-10-22T07:22:14.967Z,8.70
2017-10-22T07:24:43.756Z,8.80
2017-10-22T07:27:11.300Z,8.80
2017-10-22T07:29:38.826Z,8.70
2017-10-22T07:32:06.395Z,8.80
2017-10-22T07:34:34.318Z,8.80
2017-10-22T07:37:01.866Z,8.80
2017-10-22T07:39:29.393Z,8.80
2017-10-22T07:41:56.930Z,8.80
2017-10-22T07:44:24.475Z,8.70
2017-10-22T07:46:52.012Z,8.80
2017-10-22T07:49:19.539Z,8.80
2017-10-22T07:51:47.089Z,8.80
2017-10-22T07:54:14.623Z,8.80
2017-10-22T07:56:42.177Z,8.80
2017-10-22T07:59:09.711Z,8.90
2017-10-22T08:01:37.264Z,8.90
2017-10-22T08:04:04.824Z,8.90
2017-10-22T08:06:32.783Z,8.90
2017-10-22T08:09:00.320Z,8.90
2017-10-22T08:11:27.942Z,8.80
2017-10-22T08:13:55.865Z,8.90
2017-10-22T08:16:23.415Z,8.90
2017-10-22T08:18:51.001Z,8.90
2017-10-22T08:21:18.520Z,8.90
2017-10-22T08:23:46.067Z,8.90
2017-10-22T08:26:13.601Z,8.90
2017-10-22T08:28:41.140Z,8.90
2017-10-22T08:31:08.668Z,8.90
2017-10-22T08:33:36.223Z,8.90
2017-10-22T08:36:03.750Z,8.90
2017-10-22T08:38:31.305Z,9.00
2017-10-22T08:40:58.855Z,9.00
2017-10-22T08:43:26.418Z,9.00
2017-10-22T08:45:53.942Z,9.00
2017-10-22T08:48:21.476Z,9.00
2017-10-22T08:50:49.010Z,9.00
2017-10-22T08:53:16.951Z,9.00
2017-10-22T08:55:44.492Z,9.00
2017-10-22T08:58:12.061Z,9.00
2017-10-22T09:00:39.595Z,9.10
2017-10-22T09:03:07.526Z,9.10
2017-10-22T09:05:35.068Z,9.10
2017-10-22T09:08:02.603Z,9.10
2017-10-22T09:10:30.150Z,9.10
2017-10-22T09:12:57.687Z,9.10
2017-10-22T09:15:25.230Z,9.10
2017-10-22T09:17:53.156Z,9.10
2017-10-22T09:20:20.706Z,9.10
2017-10-22T09:22:48.242Z,9.10
2017-10-22T09:25:15.786Z,9.10
2017-10-22T09:27:43.322Z,9.10
2017-10-22T09:30:10.951Z,9.10
2017-10-22T09:32:38.491Z,9.10
2017-10-22T09:35:06.084Z,9.20
2017-10-22T09:37:33.776Z,9.20
2017-10-22T09:40:01.424Z,9.20
2017-10-22T09:42:29.076Z,9.20
2017-10-22T09:44:56.701Z,9.20
2017-10-22T09:47:24.644Z,9.20
2017-10-22T09:49:52.660Z,9.20
2017-10-22T09:52:20.634Z,9.30
2017-10-22T09:54:48.218Z,9.30
2017-10-22T09:57:15.757Z,9.30
2017-10-22T09:59:43.288Z,9.30
2017-10-22T10:02:10.841Z,9.30
2017-10-22T10:04:38.366Z,9.20
2017-10-22T10:07:05.927Z,9.30
2017-10-22T10:09:33.456Z,9.30
2017-10-22T10:12:01.423Z,9.30
2017-10-22T10:14:28.967Z,9.30
2017-10-22T10:16:56.514Z,9.30
2017-10-22T10:19:24.044Z,9.30
2017-10-22T10:21:51.608Z,9.20
2017-10-22T10:24:19.548Z,9.20
2017-10-22T10:26:47.104Z,9.30
2017-10-22T10:29:14.630Z,9.30
2017-10-22T10:31:42.573Z,9.30
2017-10-22T10:34:10.126Z,9.20
2017-10-22T10:36:37.702Z,9.20
2017-10-22T10:39:05.224Z,9.30
2017-10-22T10:41:32.776Z,9.20
2017-10-22T10:44:00.329Z,9.30
2017-10-22T10:46:27.869Z,9.30
2017-10-22T10:48:55.428Z,9.30
2017-10-22T10:51:23.011Z,9.30
2017-10-22T10:53:50.563Z,9.30
2017-10-22T10:56:18.505Z,9.30
2017-10-22T10:58:46.125Z,9.30
2017-10-22T11:01:14.061Z,9.30
2017-10-22T11:03:41.612Z,9.40
2017-10-22T11:06:09.145Z,9.30
2017-10-22T11:08:36.695Z,9.30
2017-10-22T11:11:04.239Z,9.30
2017-10-22T11:13:31.771Z,9.30
2017-10-22T11:15:59.296Z,9.40
2017-10-22T11:18:26.851Z,9.30
2017-10-22T11:20:54.383Z,9.30
2017-10-22T11:23:21.926Z,9.30
2017-10-22T11:25:49.875Z,9.30
2017-10-22T11:28:17.432Z,9.40
2017-10-22T11:30:44.988Z,9.30
2017-10-22T11:33:12.525Z,9.30
2017-10-22T11:35:40.068Z,9.30
2017-10-22T11:38:07.602Z,9.30
2017-10-22T11:40:35.155Z,9.30
2017-10-22T11:43:03.089Z,9.30
2017-10-22T11:45:30.656Z,9.30
2017-10-22T11:47:58.199Z,9.30
2017-10-22T11:50:25.763Z,9.30
2017-10-22T11:52:53.310Z,9.30
2017-10-22T11:55:21.275Z,9.40
2017-10-22T11:57:48.821Z,9.40
2017-10-22T12:00:16.438Z,9.40
2017-10-22T12:02:44.765Z,9.40
2017-10-22T12:05:12.406Z,9.40
2017-10-22T12:07:39.957Z,9.40
2017-10-22T12:10:07.508Z,9.40
2017-10-22T12:12:35.047Z,9.40
2017-10-22T12:15:02.630Z,9.40
2017-10-22T12:17:30.292Z,9.50
2017-10-22T12:19:57.859Z,9.40
2017-10-22T12:22:25.396Z,9.50
2017-10-22T12:24:53.343Z,9.50
2017-10-22T12:27:20.885Z,9.50
2017-10-22T12:29:48.441Z,9.50
2017-10-22T12:32:15.992Z,9.50
2017-10-22T12:34:43.560Z,9.50
2017-10-22T12:37:11.609Z,9.60
2017-10-22T12:39:39.154Z,9.60
2017-10-22T12:42:06.710Z,9.60
2017-10-22T12:44:34.271Z,9.60
2017-10-22T12:47:01.839Z,9.60
2017-10-22T12:49:29.424Z,9.60
2017-10-22T12:51:57.004Z,9.60
2017-10-22T12:54:24.541Z,9.60
2017-10-22T12:56:52.091Z,9.70
2017-10-22T12:59:19.635Z,9.70
2017-10-22T13:01:47.200Z,9.70
2017-10-22T13:04:14.753Z,9.70
2017-10-22T13:06:42.696Z,9.70
2017-10-22T13:09:10.314Z,9.70
2017-10-22T13:11:38.073Z,9.70
2017-10-22T13:14:06.018Z,9.80
2017-10-22T13:16:33.556Z,9.80
2017-10-22T13:19:01.181Z,9.90
2017-10-22T13:21:28.789Z,9.90
2017-10-22T13:23:56.330Z,9.90
2017-10-22T13:26:23.852Z,9.90
2017-10-22T13:28:51.430Z,10.00
2017-10-22T13:31:19.044Z,10.00
2017-10-22T13:33:46.585Z,10.10
2017-10-22T13:36:14.149Z,10.10
2017-10-22T13:38:41.725Z,10.20
2017-10-22T13:41:09.278Z,10.20
2017-10-22T13:43:36.842Z,10.20
2017-10-22T13:46:04.380Z,10.20
2017-10-22T13:48:32.342Z,10.20
2017-10-22T13:50:59.891Z,10.20
2017-10-22T13:53:27.456Z,10.20
2017-10-22T13:55:54.994Z,10.20
2017-10-22T13:58:22.945Z,10.20
2017-10-22T14:00:50.494Z,10.20
2017-10-22T14:03:18.061Z,10.20
2017-10-22T14:05:45.607Z,10.20
2017-10-22T14:08:13.152Z,10.20
2017-10-22T14:10:40.733Z,10.10
2017-10-22T14:13:08.660Z,10.10
2017-10-22T14:15:36.218Z,10.10
2017-10-22T14:18:03.771Z,10.10
2017-10-22T14:20:31.364Z,10.10
2017-10-22T14:22:58.928Z,10.00
2017-10-22T14:25:26.480Z,9.90
2017-10-22T14:27:54.000Z,9.90
2017-10-22T14:30:21.611Z,9.90
2017-10-22T14:32:49.536Z,9.90
2017-10-22T14:35:17.087Z,9.90
2017-10-22T14:37:44.634Z,9.90
2017-10-22T14:40:12.609Z,9.90
2017-10-22T14:42:40.540Z,9.90
2017-10-22T14:45:08.103Z,9.90
2017-10-22T14:47:35.643Z,9.90
2017-10-22T14:50:03.620Z,9.90
2017-10-22T14:52:31.538Z,9.90
2017-10-22T14:54:59.082Z,10.00
2017-10-22T14:57:26.764Z,10.00
2017-10-22T14:59:54.320Z,9.90
2017-10-22T15:02:22.274Z,9.90
2017-10-22T15:04:49.823Z,10.00
2017-10-22T15:07:17.390Z,9.90
2017-10-22T15:09:44.920Z,9.90
2017-10-22T15:12:12.898Z,10.00
2017-10-22T15:14:40.834Z,9.90
2017-10-22T15:17:08.377Z,9.90
2017-10-22T15:19:35.938Z,9.90
2017-10-22T15:22:03.529Z,9.90
2017-10-22T15:24:31.074Z,9.90
2017-10-22T15:26:58.644Z,9.90
2017-10-22T15:29:26.180Z,9.90
2017-10-22T15:31:53.746Z,9.90
2017-10-22T15:34:21.283Z,9.90
2017-10-22T15:36:48.832Z,9.90
2017-10-22T15:39:16.377Z,9.90
2017-10-22T15:41:43.948Z,9.90
2017-10-22T15:44:11.477Z,9.80
2017-10-22T15:46:39.032Z,9.80
2017-10-22T15:49:06.589Z,9.70
2017-10-22T15:51:34.116Z,9.70
2017-10-22T15:54:01.661Z,9.70
2017-10-22T15:56:30.001Z,9.70
2017-10-22T15:58:58.025Z,9.60
2017-10-22T16:01:25.574Z,9.60
2017-10-22T16:03:53.151Z,9.50
2017-10-22T16:06:20.682Z,9.60
2017-10-22T16:08:48.234Z,9.50
2017-10-22T16:11:15.789Z,9.60
2017-10-22T16:13:43.336Z,9.60
2017-10-22T16:16:10.892Z,9.60
2017-10-22T16:18:38.717Z,9.50
2017-10-22T16:21:06.266Z,9.50
2017-10-22T16:23:33.829Z,9.60
2017-10-22T16:26:01.394Z,9.50
2017-10-22T16:28:28.952Z,9.50
2017-10-22T16:30:56.486Z,9.60
2017-10-22T16:33:24.086Z,9.60
2017-10-22T16:35:52.041Z,9.60
2017-10-22T16:38:19.585Z,9.60
2017-10-22T16:40:47.152Z,9.60
2017-10-22T16:43:14.705Z,9.60
2017-10-22T16:45:42.695Z,9.60
2017-10-22T16:48:10.241Z,9.60
2017-10-22T16:50:37.824Z,9.60
2017-10-22T16:53:05.800Z,9.60
2017-10-22T16:55:33.350Z,9.60
2017-10-22T16:58:00.876Z,9.60
2017-10-22T17:00:28.555Z,9.60
2017-10-22T17:02:56.095Z,9.60
2017-10-22T17:05:24.064Z,9.60
2017-10-22T17:07:51.600Z,9.60
2017-10-22T17:10:19.492Z,9.60
2017-10-22T17:12:47.146Z,9.60
2017-10-22T17:15:14.698Z,9.60
2017-10-22T17:17:42.255Z,9.60
2017-10-22T17:20:09.855Z,9.60
2017-10-22T17:22:37.407Z,9.60
2017-10-22T17:25:05.006Z,9.60
2017-10-22T17:27:32.536Z,9.60
2017-10-22T17:30:00.255Z,9.60
2017-10-22T17:32:27.802Z,9.50
2017-10-22T17:34:55.333Z,9.60
2017-10-22T17:37:22.890Z,9.60
2017-10-22T17:39:50.430Z,9.60
2017-10-22T17:42:17.977Z,9.60
2017-10-22T17:44:45.508Z,9.60
2017-10-22T17:47:13.053Z,9.60
2017-10-22T17:49:40.605Z,9.60
2017-10-22T17:52:08.204Z,9.60
2017-10-22T17:54:35.741Z,9.50
2017-10-22T17:57:03.293Z,9.50
2017-10-22T17:59:31.209Z,9.50
2017-10-22T18:01:58.754Z,9.50
2017-10-22T18:04:26.285Z,9.50
2017-10-22T18:06:53.820Z,9.50
2017-10-22T18:09:21.400Z,9.50
2017-10-22T18:11:48.978Z,9.50
2017-10-22T18:14:16.534Z,9.40
2017-10-22T18:16:44.089Z,9.40
2017-10-22T18:19:11.841Z,9.40
2017-10-22T18:21:39.762Z,9.40
2017-10-22T18:24:07.310Z,9.40
2017-10-22T18:26:35.244Z,9.40
2017-10-22T18:29:02.851Z,9.40
2017-10-22T18:31:30.376Z,9.40
2017-10-22T18:33:58.377Z,9.40
2017-10-22T18:36:26.359Z,9.40
2017-10-22T18:38:53.934Z,9.40
2017-10-22T18:41:21.507Z,9.40
2017-10-22T18:43:50.091Z,9.40
2017-10-22T18:46:17.651Z,9.40
2017-10-22T18:48:45.201Z,9.40
2017-10-22T18:51:12.741Z,9.40
2017-10-22T18:53:40.726Z,9.40
2017-10-22T18:56:08.653Z,9.40
2017-10-22T18:58:36.217Z,9.40
2017-10-22T19:01:03.768Z,9.40
2017-10-22T19:03:31.408Z,9.40
2017-10-22T19:05:58.933Z,9.40
2017-10-22T19:08:26.518Z,9.40
2017-10-22T19:10:54.082Z,9.40
2017-10-22T19:13:21.645Z,9.40
2017-10-22T19:15:49.206Z,9.40
2017-10-22T19:18:16.771Z,9.30
2017-10-22T19:20:44.327Z,9.40
2017-10-22T19:23:11.890Z,9.40
2017-10-22T19:25:39.439Z,9.30
2017-10-22T19:28:07.072Z,9.30
2017-10-22T19:30:34.621Z,9.30
2017-10-22T19:33:02.164Z,9.30
2017-10-22T19:35:29.713Z,9.30
2017-10-22T19:37:57.397Z,9.40
2017-10-22T19:40:24.942Z,9.40
2017-10-22T19:42:52.477Z,9.40
2017-10-22T19:45:20.416Z,9.30
2017-10-22T19:47:47.958Z,9.40
2017-10-22T19:50:15.506Z,9.40
2017-10-22T19:52:43.451Z,9.30
2017-10-22T19:55:11.029Z,9.40
2017-10-22T19:57:38.574Z,9.40
2017-10-22T20:00:06.149Z,9.40
2017-10-22T20:02:33.693Z,9.40
2017-10-22T20:05:01.251Z,9.40
2017-10-22T20:07:28.830Z,9.40
2017-10-22T20:09:57.047Z,9.40
2017-10-22T20:12:24.598Z,9.40
2017-10-22T20:14:52.256Z,9.40
2017-10-22T20:17:19.796Z,9.40
2017-10-22T20:19:47.339Z,9.40
2017-10-22T20:22:14.889Z,9.40
2017-10-22T20:24:42.410Z,9.40
2017-10-22T20:27:09.982Z,9.40
2017-10-22T20:29:37.583Z,9.40
2017-10-22T20:32:05.154Z,9.30
2017-10-22T20:34:33.065Z,9.40
2017-10-22T20:37:00.606Z,9.40
2017-10-22T20:39:28.171Z,9.30
2017-10-22T20:41:56.111Z,9.30
2017-10-22T20:44:23.657Z,9.30
2017-10-22T20:46:51.267Z,9.30
2017-10-22T20:49:18.813Z,9.20
2017-10-22T20:51:46.361Z,9.20
2017-10-22T20:54:14.015Z,9.20
2017-10-22T20:56:41.549Z,9.20
2017-10-22T20:59:09.085Z,9.20
2017-10-22T21:01:36.644Z,9.20
2017-10-22T21:04:04.205Z,9.20
2017-10-22T21:06:31.746Z,9.10
2017-10-22T21:08:59.323Z,9.10
2017-10-22T21:11:26.869Z,9.10
2017-10-22T21:13:54.428Z,9.10
2017-10-22T21:16:21.976Z,9.10
2017-10-22T21:18:49.528Z,9.00
2017-10-22T21:21:17.444Z,9.10
2017-10-22T21:23:45.036Z,9.10
2017-10-22T21:26:12.611Z,9.00
2017-10-22T21:28:40.135Z,9.00
2017-10-22T21:31:08.082Z,9.00
2017-10-22T21:33:35.635Z,9.10
2017-10-22T21:36:03.164Z,9.00
2017-10-22T21:38:30.696Z,9.00
2017-10-22T21:40:58.660Z,9.00
2017-10-22T21:43:26.199Z,9.10
2017-10-22T21:45:53.726Z,9.00
2017-10-22T21:48:21.285Z,9.00
2017-10-22T21:50:48.801Z,9.00
2017-10-22T21:53:16.345Z,9.00
2017-10-22T21:55:43.886Z,9.00
2017-10-22T21:58:11.422Z,9.00
2017-10-22T22:00:38.968Z,9.00
2017-10-22T22:03:06.954Z,9.00
2017-10-22T22:05:34.877Z,9.00
2017-10-22T22:08:02.398Z,9.00
2017-10-22T22:10:29.956Z,9.00
2017-10-22T22:12:57.486Z,8.90
2017-10-22T22:15:25.034Z,8.90
2017-10-22T22:17:52.572Z,8.90
2017-10-22T22:20:20.123Z,8.90
2017-10-22T22:22:47.658Z,8.90
2017-10-22T22:25:15.188Z,8.90
2017-10-22T22:27:42.724Z,8.80
2017-10-22T22:30:10.261Z,8.90
2017-10-22T22:32:37.884Z,8.90
2017-10-22T22:35:05.404Z,8.80
2017-10-22T22:37:32.969Z,8.80
2017-10-22T22:40:00.907Z,8.80
2017-10-22T22:42:28.458Z,8.80
2017-10-22T22:44:55.995Z,8.80
2017-10-22T22:47:23.919Z,8.80
2017-10-22T22:49:51.472Z,8.80
2017-10-22T22:52:19.013Z,8.80
2017-10-22T22:54:46.573Z,8.80
2017-10-22T22:57:14.195Z,8.80
2017-10-22T22:59:41.723Z,8.80
2017-10-22T23:02:09.277Z,8.80
2017-10-22T23:04:36.799Z,8.80
2017-10-22T23:07:04.398Z,8.80
2017-10-22T23:09:31.958Z,8.70
2017-10-22T23:11:59.505Z,8.70
2017-10-22T23:14:27.043Z,8.70
2017-10-22T23:16:55.015Z,8.70
2017-10-22T23:19:22.549Z,8.70
2017-10-22T23:21:50.093Z,8.70
2017-10-22T23:24:17.644Z,8.70
2017-10-22T23:26:45.171Z,8.70
2017-10-22T23:29:12.732Z,8.70
2017-10-22T23:31:40.263Z,8.70
2017-10-22T23:34:07.821Z,8.60
2017-10-22T23:36:35.497Z,8.60
2017-10-22T23:39:03.045Z,8.60
2017-10-22T23:41:30.565Z,8.60
2017-10-22T23:43:58.121Z,8.60
2017-10-22T23:46:26.061Z,8.60
2017-10-22T23:48:53.583Z,8.60
2017-10-22T23:51:21.144Z,8.50
2017-10-22T23:53:49.064Z,8.50
2017-10-22T23:56:16.628Z,8.50
2017-10-22T23:58:44.170Z,8.50
